Flight Track Log - Related Links

Times and Time Zones

All times are in EST time to prevent confusion due to time zone crossing. See the ASA379 flight status page for this flight to view local times or setup timezone preferences in your user account.

Time Position Orientation Groundspeed Altitude Reporting Facility
EST Latitude Longitude Course Direction KTS MPH feet Rate Location/Type
Sat 10:12:24 PM 45.5839 -122.5681 106° East 150 173 600  Level Seattle Center
Sat 10:12:48 PM 45.5786 -122.5425 106° East 155 178 1,700 2,471 Climbing Seattle Center
Sat 10:13:49 PM 45.5650 -122.4647 104° East 217 250 4,100 2,257 Climbing Seattle Center
Sat 10:14:37 PM 45.5486 -122.3936 108° East 240 276 5,800 2,477 Climbing Seattle Center
Sat 10:15:38 PM 45.5028 -122.4308 210° Southwest 213 245 8,600 3,174 Climbing Seattle Center
Sat 10:16:38 PM 45.4653 -122.5008 233° Southwest 223 257 12,200 3,620 Climbing Seattle Center
Sat 10:17:39 PM 45.4225 -122.5833 234° Southwest 240 276 15,900 3,174 Climbing Seattle Center
Sat 10:18:39 PM 45.3858 -122.6556 234° Southwest 264 304 18,600 2,876 Climbing Seattle Center
Sat 10:19:40 PM 45.3381 -122.7453 233° Southwest 286 329 21,700 3,049 Climbing Seattle Center
Sat 10:20:41 PM 45.2886 -122.8394 233° Southwest 296 341 24,800 2,777 Climbing Seattle Center
Sat 10:21:41 PM 45.2383 -122.9356 233° Southwest 303 349 27,300 2,331 Climbing Seattle Center
Sat 10:22:42 PM 45.1617 -122.9989 210° Southwest 333 383 29,500 2,083 Climbing Seattle Center
Sat 10:23:42 PM 45.0739 -123.0431 200° South 332 382 31,500 2,083 Climbing Seattle Center
Sat 10:24:43 PM 44.9828 -123.0872 199° South 340 391 33,700 1,672 Climbing Seattle Center
Sat 10:25:44 PM 44.8908 -123.1356 200° South 350 403 34,900 1,736 Climbing Seattle Center
Sat 10:26:44 PM 44.7956 -123.1797 198° South 357 411 37,200 1,587 Climbing Seattle Center
Sat 10:27:45 PM 44.7036 -123.2267 200° South 351 404 38,100 1,140 Climbing Seattle Center
Sat 10:28:45 PM 44.6078 -123.2728 199° South 358 412 39,500 1,140 Climbing Seattle Center
Sat 10:29:46 PM 44.5117 -123.3203 199° South 363 418 40,400 694 Climbing Seattle Center
Sat 10:30:46 PM 44.3808 -123.3208 180° South 393 452 40,900 298 Climbing Seattle Center
Sat 10:31:47 PM 44.2664 -123.3178 179° South 409 471 41,000 49 Climbing Seattle Center
Sat 10:32:48 PM 44.1564 -123.3139 179° South 401 461 41,000  Level Seattle Center
Sat 10:33:48 PM 44.0464 -123.3100 179° South 398 458 41,000  Level Seattle Center
Sat 10:34:49 PM 43.9350 -123.3061 179° South 399 459 41,000  Level Seattle Center
Sat 10:35:49 PM 43.8236 -123.3000 178° South 400 460 41,000  Level Seattle Center
Sat 10:36:50 PM 43.7117 -123.2964 179° South 402 463 41,000  Level Seattle Center
Sat 10:37:51 PM 43.6003 -123.2931 179° South 401 461 41,000  Level Seattle Center
Sat 10:38:51 PM 43.4892 -123.2889 178° South 400 460 41,000  Level Seattle Center
Sat 10:39:52 PM 43.3769 -123.2836 178° South 403 464 41,000  Level Seattle Center
Sat 10:40:52 PM 43.2647 -123.2792 178° South 403 464 41,000  Level Seattle Center
Sat 10:41:53 PM 43.1536 -123.2739 178° South 402 463 41,000  Level Seattle Center
Sat 10:42:54 PM 43.0411 -123.2703 179° South 403 464 41,000  Level Seattle Center
Sat 10:43:54 PM 42.9281 -123.2664 179° South 404 465 41,000  Level Seattle Center
Sat 10:44:55 PM 42.8133 -123.2617 178° South 408 470 41,000  Level Seattle Center
Sat 10:45:55 PM 42.7008 -123.2572 178° South 409 471 41,000  Level Seattle Center
Sat 10:46:56 PM 42.5881 -123.2528 178° South 407 468 41,000  Level Seattle Center
Sat 10:47:57 PM 42.4753 -123.2494 179° South 407 468 41,000  Level Seattle Center
Sat 10:48:57 PM 42.3389 -123.2431 178° South 409 471 41,000  Level Seattle Center
Sat 10:49:58 PM 42.2247 -123.2383 178° South 412 474 41,000  Level Seattle Center
Sat 10:50:58 PM 42.1106 -123.2353 179° South 411 473 41,000  Level Seattle Center
Sat 10:51:59 PM 41.9992 -123.2314 179° South 406 467 41,000  Level Seattle Center
Sat 10:53:00 PM 41.8864 -123.2272 178° South 406 467 41,000  Level Seattle Center
Sat 10:54:00 PM 41.7725 -123.2244 179° South 412 474 41,000  Level Seattle Center
Sat 10:55:01 PM 41.6572 -123.2194 178° South 416 479 41,000  Level Seattle Center
Sat 10:55:42 PM 41.5886 -123.2206 181° South 416 479 41,000  Level Oakland Center
Sat 10:56:43 PM 41.4508 -123.2075 176° South 417 480 41,000  Level Oakland Center
Sat 10:57:44 PM 41.3372 -123.1939 175° South 413 475 41,000  Level Oakland Center
Sat 10:58:45 PM 41.2361 -123.1833 176° South 411 473 41,000  Level Oakland Center
Sat 10:59:46 PM 41.1222 -123.1706 175° South 412 474 41,000  Level Oakland Center
Sat 11:00:47 PM 40.9936 -123.1586 176° South 415 478 41,000  Level Oakland Center
Sat 11:01:47 PM 40.8789 -123.1481 176° South 414 476 41,000  Level Oakland Center
Sat 11:02:48 PM 40.7550 -123.1339 175° South 415 478 41,000  Level Oakland Center
Sat 11:03:49 PM 40.6389 -123.1233 176° South 421 484 41,000  Level Oakland Center
Sat 11:04:50 PM 40.5239 -123.1100 175° South 418 481 41,000  Level Oakland Center
Sat 11:05:51 PM 40.4103 -123.0978 175° South 412 474 41,000  Level Oakland Center
Sat 11:06:52 PM 40.2942 -123.0867 176° South 419 482 41,000  Level Oakland Center
Sat 11:07:52 PM 40.1797 -123.0747 175° South 417 480 41,000  Level Oakland Center
Sat 11:08:53 PM 40.0653 -123.0631 176° South 415 478 41,000  Level Oakland Center
Sat 11:09:54 PM 39.9500 -123.0525 176° South 417 480 41,000  Level Oakland Center
Sat 11:10:55 PM 39.8333 -123.0397 175° South 421 484 41,000  Level Oakland Center
Sat 11:11:56 PM 39.6947 -123.0253 175° South 420 483 41,000  Level Oakland Center
Sat 11:12:57 PM 39.5783 -123.0158 176° South 421 484 41,000  Level Oakland Center
Sat 11:13:57 PM 39.4639 -123.0025 175° South 424 488 41,000 -149 Level Oakland Center
Sat 11:14:58 PM 39.3572 -122.9925 176° South 423 487 40,700 -639 Descending Oakland Center
Sat 11:15:59 PM 39.2403 -122.9764 174° South 423 487 39,700 -934 Descending Oakland Center
Sat 11:17:00 PM 39.1233 -122.9475 169° South 427 491 38,800 -1,636 Descending Oakland Center
Sat 11:18:00 PM 38.9842 -122.9150 170° South 425 489 36,400 -2,777 Descending Oakland Center
Sat 11:19:01 PM 38.8667 -122.8889 170° South 428 493 33,200 -3,098 Descending Oakland Center
Sat 11:20:02 PM 38.7461 -122.8608 170° South 438 504 30,100 -2,803 Descending Oakland Center
Sat 11:21:03 PM 38.6269 -122.8353 170° South 437 503 27,500 -2,579 Descending Oakland Center
Sat 11:22:03 PM 38.5103 -122.8083 170° South 428 493 24,900 -2,529 Descending Oakland Center
Sat 11:23:04 PM 38.3975 -122.7836 170° South 416 479 22,400 -2,410 Descending Oakland Center
Sat 11:24:05 PM 38.2894 -122.7597 170° South 399 459 20,000 -2,311 Descending Oakland Center
Sat 11:25:06 PM 38.1844 -122.7358 170° South 387 445 17,700 -2,281 Descending Oakland Center
Sat 11:26:06 PM 38.0850 -122.7139 170° South 369 425 15,400 -2,231 Descending Oakland Center
Sat 11:27:07 PM 37.9919 -122.6933 170° South 348 400 13,200 -2,115 Descending Oakland Center
Sat 11:28:08 PM 37.9053 -122.6733 170° South 332 382 11,100 -1,131 Descending Oakland Center
Sat 11:29:09 PM 37.8247 -122.5936 142° Southeast 320 368 10,900 -98 Descending Oakland Center
Sat 11:30:10 PM 37.7631 -122.5278 140° Southeast 302 348 10,900  Level Oakland Center
Sat 11:31:10 PM 37.7064 -122.4667 140° Southeast 277 319 10,900  Level Oakland Center
Sat 11:32:11 PM 37.6500 -122.4067 140° Southeast 266 306 10,900 -98 Level Oakland Center
Sat 11:33:12 PM 37.5967 -122.3556 143° Southeast 245 282 10,700 -787 Descending Oakland Center
Sat 11:34:13 PM 37.5375 -122.3156 152° Southeast 242 278 9,300 -1,438 Descending Oakland Center
Sat 11:35:13 PM 37.4822 -122.2700 147° Southeast 249 287 7,800 -1,537 Descending Oakland Center
Sat 11:36:14 PM 37.4547 -122.1939 114° Southeast 242 278 6,200 -1,131 Descending Oakland Center
Sat 11:37:15 PM 37.4736 -122.1381 67° East 228 262 5,500 -1,082 Descending Oakland Center
Sat 11:38:16 PM 37.5214 -122.1639 337° Northwest 199 229 4,000 -1,574 Descending Oakland Center
Sat 11:39:17 PM 37.5514 -122.2172 305° West 194 223 2,300 -1,289 Descending Oakland Center
Sat 11:40:17 PM 37.5744 -122.2711 298° West 184 212 1,400 -843 Descending Oakland Center
Sat 11:41:18 PM 37.5967 -122.3233 298° West 158 182 600 -590 Descending Oakland Center
Sat 11:42:19 PM 37.6114 -122.3567 299° West 145 167 200 -393 Descending Oakland Center

Login

Don't have an account? Register now (free) for customized features, flight alerts, and more!